createdAt,value
2022-09-28T00:01:18.405Z,77.72
2022-09-28T00:03:49.013Z,78.35
2022-09-28T00:06:20.098Z,77.26
2022-09-28T00:08:51.957Z,77.63
2022-09-28T00:11:22.865Z,78.19
2022-09-28T00:13:53.433Z,77.69
2022-09-28T00:16:25.555Z,77.85
2022-09-28T00:18:54.086Z,78.32
2022-09-28T00:21:23.912Z,77.92
2022-09-28T00:24:14.530Z,77.68
2022-09-28T00:26:46.379Z,78.13
2022-09-28T00:29:22.275Z,78.79
2022-09-28T00:31:56.934Z,78.75
2022-09-28T00:34:25.020Z,78.46
2022-09-28T00:36:52.974Z,79.28
2022-09-28T00:39:22.500Z,79.96
2022-09-28T00:41:50.883Z,81.00
2022-09-28T00:44:39.300Z,82.00
2022-09-28T00:47:24.254Z,82.45
2022-09-28T00:49:59.806Z,83.16
2022-09-28T00:52:33.526Z,82.79
2022-09-28T00:55:07.324Z,82.88
2022-09-28T00:57:38.519Z,82.59
2022-09-28T01:00:10.607Z,81.96
2022-09-28T01:02:38.415Z,81.68
2022-09-28T01:05:10.274Z,80.81
2022-09-28T01:07:40.124Z,80.73
2022-09-28T01:10:09.963Z,81.11
2022-09-28T01:12:38.981Z,80.89
2022-09-28T01:15:08.324Z,81.11
2022-09-28T01:18:00.071Z,81.24
2022-09-28T01:21:01.339Z,81.82
2022-09-28T01:23:52.302Z,81.23
2022-09-28T01:26:45.950Z,81.54
2022-09-28T01:29:29.475Z,80.54
2022-09-28T01:32:15.111Z,80.81
2022-09-28T01:34:54.730Z,81.54
2022-09-28T01:37:36.228Z,80.94
2022-09-28T01:40:10.478Z,80.66
2022-09-28T01:42:44.095Z,80.55
2022-09-28T01:45:22.630Z,80.93
2022-09-28T01:47:59.965Z,79.86
2022-09-28T01:50:34.105Z,79.49
2022-09-28T01:53:12.413Z,79.50
2022-09-28T01:55:46.173Z,80.70
2022-09-28T01:58:24.481Z,81.09
2022-09-28T02:01:01.463Z,80.61
2022-09-28T02:03:39.773Z,79.97
2022-09-28T02:06:16.232Z,78.79
2022-09-28T02:08:50.629Z,79.84
2022-09-28T02:11:22.244Z,80.38
2022-09-28T02:14:01.012Z,79.39
2022-09-28T02:16:38.049Z,78.50
2022-09-28T02:19:09.824Z,78.64
2022-09-28T02:21:49.668Z,78.89
2022-09-28T02:24:30.983Z,79.45
2022-09-28T02:27:05.625Z,79.38
2022-09-28T02:29:36.272Z,77.92
2022-09-28T02:32:04.129Z,78.80
2022-09-28T02:34:32.825Z,79.33
2022-09-28T02:37:01.966Z,79.46
2022-09-28T02:39:31.592Z,78.99
2022-09-28T02:42:17.174Z,79.89
2022-09-28T02:45:08.101Z,79.07
2022-09-28T02:48:00.657Z,79.22
2022-09-28T02:50:42.673Z,78.99
2022-09-28T02:53:35.229Z,80.03
2022-09-28T02:56:26.673Z,79.26
2022-09-28T02:59:07.943Z,81.03
2022-09-28T03:01:50.200Z,81.49
2022-09-28T03:04:36.272Z,81.25
2022-09-28T03:07:16.345Z,81.13
2022-09-28T03:09:58.071Z,81.91
2022-09-28T03:12:29.851Z,81.20
2022-09-28T03:15:12.341Z,80.62
2022-09-28T03:17:42.556Z,80.27
2022-09-28T03:20:11.678Z,81.34
2022-09-28T03:22:39.581Z,80.55
2022-09-28T03:25:09.794Z,81.48
2022-09-28T03:27:39.815Z,81.19
2022-09-28T03:30:10.620Z,81.38
2022-09-28T03:32:40.165Z,81.26
2022-09-28T03:35:12.094Z,80.84
2022-09-28T03:37:42.643Z,80.30
2022-09-28T03:40:11.123Z,80.98
2022-09-28T03:42:38.963Z,80.94
2022-09-28T03:45:07.878Z,81.27
2022-09-28T03:47:36.044Z,81.88
2022-09-28T03:50:06.890Z,81.47
2022-09-28T03:52:36.277Z,81.30
2022-09-28T03:55:04.746Z,82.43
2022-09-28T03:57:33.785Z,82.31
2022-09-28T04:00:02.108Z,82.15
2022-09-28T04:02:32.292Z,83.27
2022-09-28T04:05:00.274Z,82.96
2022-09-28T04:07:31.063Z,82.20
2022-09-28T04:10:01.108Z,82.19
2022-09-28T04:12:29.327Z,81.31
2022-09-28T04:14:59.492Z,80.77
2022-09-28T04:17:30.190Z,80.45
2022-09-28T04:19:58.280Z,79.57
2022-09-28T04:22:41.266Z,80.06
2022-09-28T04:25:11.358Z,79.25
2022-09-28T04:27:58.281Z,78.68
2022-09-28T04:30:26.420Z,79.58
2022-09-28T04:32:54.201Z,79.57
2022-09-28T04:35:22.361Z,79.35
2022-09-28T04:37:50.466Z,80.06
2022-09-28T04:40:19.635Z,80.34
2022-09-28T04:42:54.164Z,81.16
2022-09-28T04:45:23.439Z,80.63
2022-09-28T04:47:51.933Z,80.78
2022-09-28T04:50:29.516Z,81.71
2022-09-28T04:53:15.817Z,80.78
2022-09-28T04:55:45.188Z,80.95
2022-09-28T04:58:13.136Z,81.23
2022-09-28T05:00:40.931Z,81.70
2022-09-28T05:03:21.019Z,81.77
2022-09-28T05:06:16.542Z,81.79
2022-09-28T05:08:47.181Z,81.28
2022-09-28T05:11:18.268Z,81.00
2022-09-28T05:13:46.201Z,81.75
2022-09-28T05:16:17.467Z,80.93
2022-09-28T05:19:08.086Z,81.60
2022-09-28T05:21:35.920Z,80.75
2022-09-28T05:24:07.377Z,81.00
2022-09-28T05:26:38.528Z,80.86
2022-09-28T05:29:08.837Z,81.37
2022-09-28T05:31:51.983Z,80.73
2022-09-28T05:34:35.173Z,80.77
2022-09-28T05:37:03.148Z,80.26
2022-09-28T05:39:32.131Z,81.22
2022-09-28T05:42:01.492Z,81.20
2022-09-28T05:44:31.908Z,80.12
2022-09-28T05:46:59.757Z,80.88
2022-09-28T05:49:29.167Z,81.11
2022-09-28T05:51:57.367Z,80.47
2022-09-28T05:54:26.029Z,81.39
2022-09-28T05:56:54.065Z,81.43
2022-09-28T05:59:23.198Z,81.11
2022-09-28T06:01:50.948Z,80.51
2022-09-28T06:04:18.843Z,81.75
2022-09-28T06:06:49.056Z,81.33
2022-09-28T06:09:17.877Z,81.68
2022-09-28T06:12:24.113Z,80.60
2022-09-28T06:14:58.546Z,81.38
2022-09-28T06:17:26.379Z,81.22
2022-09-28T06:20:14.652Z,81.76
2022-09-28T06:22:57.244Z,80.80
2022-09-28T06:25:27.502Z,81.42
2022-09-28T06:27:57.234Z,80.43
2022-09-28T06:30:29.619Z,78.69
2022-09-28T06:33:01.114Z,81.55
2022-09-28T06:35:31.569Z,81.11
2022-09-28T06:38:00.124Z,81.41
2022-09-28T06:40:29.155Z,81.19
2022-09-28T06:42:59.295Z,81.75
2022-09-28T06:45:53.833Z,80.10
2022-09-28T06:48:31.643Z,80.40
2022-09-28T06:51:00.615Z,80.57
2022-09-28T06:53:31.647Z,79.99
2022-09-28T06:56:02.961Z,79.55
2022-09-28T06:58:32.222Z,79.01
2022-09-28T07:01:02.450Z,79.76
2022-09-28T07:03:37.159Z,79.52
2022-09-28T07:06:47.649Z,79.81
2022-09-28T07:09:37.299Z,80.94
2022-09-28T07:12:13.071Z,80.20
2022-09-28T07:14:50.193Z,80.16
2022-09-28T07:17:20.460Z,78.54
2022-09-28T07:19:52.541Z,78.65
2022-09-28T07:22:34.348Z,77.50
2022-09-28T07:25:09.842Z,77.13
2022-09-28T07:27:43.919Z,77.69
2022-09-28T07:30:38.535Z,76.28
2022-09-28T07:33:16.126Z,75.95
2022-09-28T07:35:57.028Z,77.08
2022-09-28T07:38:29.359Z,76.36
2022-09-28T07:41:14.156Z,76.22
2022-09-28T07:43:50.118Z,74.46
2022-09-28T07:46:18.093Z,75.01
2022-09-28T07:48:58.130Z,75.64
2022-09-28T07:51:36.559Z,73.24
2022-09-28T07:54:26.287Z,73.88
2022-09-28T07:57:22.412Z,72.16
2022-09-28T08:00:17.865Z,72.33
2022-09-28T08:02:48.973Z,73.46
2022-09-28T08:05:25.181Z,74.01
2022-09-28T08:07:57.634Z,72.96
2022-09-28T08:10:26.608Z,72.63
2022-09-28T08:13:27.047Z,71.82
2022-09-28T08:16:01.917Z,72.43
2022-09-28T08:18:45.033Z,73.03
2022-09-28T08:21:33.014Z,71.11
2022-09-28T08:24:01.518Z,73.59
2022-09-28T08:26:29.324Z,72.98
2022-09-28T08:28:57.364Z,72.40
2022-09-28T08:31:43.716Z,72.46
2022-09-28T08:34:22.548Z,72.42
2022-09-28T08:37:12.441Z,72.62
2022-09-28T08:39:58.883Z,71.84
2022-09-28T08:42:53.166Z,70.97
2022-09-28T08:45:39.678Z,70.59
2022-09-28T08:48:39.878Z,70.73
2022-09-28T08:51:42.181Z,70.38
2022-09-28T08:54:37.553Z,69.27
2022-09-28T08:57:19.241Z,69.11
2022-09-28T08:59:52.597Z,70.18
2022-09-28T09:02:36.158Z,68.71
2022-09-28T09:05:19.027Z,68.12
2022-09-28T09:08:31.811Z,66.98
2022-09-28T09:11:22.972Z,66.81
2022-09-28T09:14:16.529Z,66.48
2022-09-28T09:17:00.598Z,65.14
2022-09-28T09:19:53.299Z,63.12
2022-09-28T09:22:40.823Z,62.92
2022-09-28T09:25:20.510Z,62.57
2022-09-28T09:28:33.596Z,62.87
2022-09-28T09:31:22.570Z,63.40
2022-09-28T09:34:16.593Z,63.16
2022-09-28T09:37:18.338Z,61.16
2022-09-28T09:40:32.191Z,60.73
2022-09-28T09:44:07.201Z,56.34
2022-09-28T09:47:07.938Z,56.69
2022-09-28T09:49:51.575Z,55.17
2022-09-28T09:52:26.902Z,56.59
2022-09-28T09:55:03.350Z,54.71
2022-09-28T09:57:44.627Z,54.76
2022-09-28T10:00:29.637Z,54.91
2022-09-28T10:03:23.577Z,52.14
2022-09-28T10:06:00.300Z,48.97
2022-09-28T10:08:32.488Z,48.48
2022-09-28T10:11:09.334Z,48.74
2022-09-28T10:13:41.331Z,49.88
2022-09-28T10:16:33.154Z,51.58
2022-09-28T10:19:02.745Z,50.15
2022-09-28T10:22:06.336Z,49.18
2022-09-28T10:24:41.978Z,47.50
2022-09-28T10:27:16.755Z,46.85
2022-09-28T10:29:52.351Z,45.96
2022-09-28T10:32:25.537Z,45.11
2022-09-28T10:35:16.880Z,43.77
2022-09-28T10:37:54.164Z,45.38
2022-09-28T10:40:45.653Z,43.84
2022-09-28T10:43:23.852Z,43.66
2022-09-28T10:46:07.551Z,41.97
2022-09-28T10:48:51.646Z,41.62
2022-09-28T10:51:40.153Z,43.11
2022-09-28T10:54:17.755Z,42.55
2022-09-28T10:56:49.251Z,42.56
2022-09-28T10:59:40.828Z,44.13
2022-09-28T11:02:36.464Z,43.38
2022-09-28T11:05:29.888Z,44.84
2022-09-28T11:08:05.536Z,44.68
2022-09-28T11:10:40.301Z,44.77
2022-09-28T11:13:14.586Z,45.77
2022-09-28T11:15:47.530Z,46.74
2022-09-28T11:18:31.367Z,46.39
2022-09-28T11:21:17.507Z,47.62
2022-09-28T11:24:07.221Z,46.87
2022-09-28T11:26:42.839Z,47.58
2022-09-28T11:29:23.403Z,46.01
2022-09-28T11:32:15.669Z,47.09
2022-09-28T11:35:04.571Z,46.38
2022-09-28T11:37:58.772Z,45.98
2022-09-28T11:41:06.424Z,45.33
2022-09-28T11:44:01.788Z,46.09
2022-09-28T11:46:45.952Z,44.97
2022-09-28T11:49:30.160Z,45.52
2022-09-28T11:52:08.173Z,45.19
2022-09-28T11:54:47.329Z,45.21
2022-09-28T11:57:23.035Z,44.66
2022-09-28T12:00:00.408Z,46.39
2022-09-28T12:02:40.618Z,46.31
2022-09-28T12:05:22.753Z,46.73
2022-09-28T12:07:59.072Z,49.04
2022-09-28T12:10:58.019Z,48.43
2022-09-28T12:13:51.422Z,49.25
2022-09-28T12:16:53.714Z,50.29
2022-09-28T12:19:22.519Z,51.68
2022-09-28T12:21:55.382Z,49.29
2022-09-28T12:24:29.245Z,48.60
2022-09-28T12:27:06.018Z,48.62
2022-09-28T12:29:43.962Z,49.50
2022-09-28T12:32:26.524Z,48.47
2022-09-28T12:34:55.460Z,46.07
2022-09-28T12:38:01.130Z,45.04
2022-09-28T12:40:41.492Z,46.10
2022-09-28T12:43:54.722Z,47.12
2022-09-28T12:46:49.080Z,45.66
2022-09-28T12:51:02.365Z,44.83
2022-09-28T12:53:07.292Z,43.43
2022-09-28T12:55:56.405Z,39.72
2022-09-28T12:59:00.882Z,39.71
2022-09-28T13:02:16.102Z,39.58
2022-09-28T13:05:12.139Z,41.01
2022-09-28T13:07:50.592Z,43.17
2022-09-28T13:10:33.115Z,42.86
2022-09-28T13:13:27.373Z,42.42
2022-09-28T13:16:11.815Z,43.56
2022-09-28T13:18:49.094Z,42.31
2022-09-28T13:21:34.618Z,41.49
2022-09-28T13:24:20.969Z,44.90
2022-09-28T13:27:04.675Z,44.10
2022-09-28T13:29:34.840Z,40.54
2022-09-28T13:32:08.521Z,42.19
2022-09-28T13:34:39.508Z,41.01
2022-09-28T13:37:25.778Z,41.80
2022-09-28T13:39:58.638Z,40.87
2022-09-28T13:43:12.050Z,39.05
2022-09-28T13:46:08.616Z,38.06
2022-09-28T13:48:53.125Z,38.44
2022-09-28T13:51:38.252Z,37.69
2022-09-28T13:54:37.139Z,37.49
2022-09-28T13:57:21.404Z,34.28
2022-09-28T14:00:02.792Z,34.89
2022-09-28T14:02:46.640Z,34.63
2022-09-28T14:05:47.256Z,34.26
2022-09-28T14:08:34.834Z,36.53
2022-09-28T14:11:53.536Z,35.66
2022-09-28T14:14:45.762Z,36.71
2022-09-28T14:18:02.530Z,38.98
2022-09-28T14:20:31.477Z,40.99
2022-09-28T14:23:50.541Z,40.95
2022-09-28T14:27:27.343Z,40.67
2022-09-28T14:30:16.278Z,39.56
2022-09-28T14:32:54.085Z,40.35
2022-09-28T14:35:32.728Z,42.05
2022-09-28T14:38:25.242Z,41.96
2022-09-28T14:41:11.076Z,39.88
2022-09-28T14:44:03.720Z,37.85
2022-09-28T14:46:44.223Z,39.84
2022-09-28T14:49:47.904Z,39.55
2022-09-28T14:52:39.146Z,38.44
2022-09-28T14:55:19.524Z,36.13
2022-09-28T14:57:56.681Z,37.04
2022-09-28T15:00:30.319Z,35.80
2022-09-28T15:03:05.946Z,36.90
2022-09-28T15:05:44.493Z,35.78
2022-09-28T15:08:12.704Z,36.96
2022-09-28T15:10:46.872Z,37.54
2022-09-28T15:13:24.075Z,39.21
2022-09-28T15:15:59.416Z,39.00
2022-09-28T15:19:23.097Z,39.24
2022-09-28T15:21:52.800Z,40.37
2022-09-28T15:24:27.707Z,41.15
2022-09-28T15:26:56.714Z,41.28
2022-09-28T15:29:30.945Z,43.40
2022-09-28T15:31:59.271Z,44.50
2022-09-28T15:34:48.925Z,45.63
2022-09-28T15:37:21.971Z,45.32
2022-09-28T15:39:52.556Z,44.98
2022-09-28T15:42:22.658Z,46.05
2022-09-28T15:45:26.588Z,47.31
2022-09-28T15:48:18.254Z,48.52
2022-09-28T15:51:03.018Z,49.67
2022-09-28T15:53:31.888Z,50.67
2022-09-28T15:56:10.779Z,51.71
2022-09-28T15:58:40.056Z,51.82
2022-09-28T16:01:36.579Z,50.98
2022-09-28T16:04:38.575Z,51.43
2022-09-28T16:07:28.466Z,52.12
2022-09-28T16:10:04.782Z,52.36
2022-09-28T16:12:45.942Z,52.61
2022-09-28T16:15:21.133Z,54.05
2022-09-28T16:17:54.974Z,54.05
2022-09-28T16:20:29.421Z,54.13
2022-09-28T16:23:05.809Z,55.40
2022-09-28T16:25:39.162Z,56.69
2022-09-28T16:28:08.835Z,56.14
2022-09-28T16:30:36.815Z,56.54
2022-09-28T16:33:27.580Z,56.61
2022-09-28T16:35:55.741Z,57.64
2022-09-28T16:38:24.212Z,58.16
2022-09-28T16:40:54.614Z,57.23
2022-09-28T16:43:27.668Z,56.69
2022-09-28T16:45:58.335Z,56.76
2022-09-28T16:48:32.071Z,57.22
2022-09-28T16:50:59.986Z,57.30
2022-09-28T16:53:46.645Z,57.82
2022-09-28T16:56:15.167Z,57.27
2022-09-28T16:58:44.097Z,58.01
2022-09-28T17:01:15.260Z,57.35
2022-09-28T17:03:47.626Z,58.57
2022-09-28T17:06:18.489Z,58.64
2022-09-28T17:08:46.757Z,58.88
2022-09-28T17:11:23.373Z,58.16
2022-09-28T17:13:58.827Z,58.37
2022-09-28T17:19:23.250Z,58.42
2022-09-28T17:21:52.565Z,57.69
2022-09-28T17:24:21.412Z,57.46
2022-09-28T17:26:51.956Z,56.99
2022-09-28T17:29:20.390Z,57.60
2022-09-28T17:31:48.639Z,57.55
2022-09-28T17:34:17.598Z,56.96
2022-09-28T17:36:47.811Z,57.72
2022-09-28T17:39:18.933Z,58.13
2022-09-28T17:41:47.547Z,59.49
2022-09-28T17:44:16.203Z,60.17
2022-09-28T17:46:48.509Z,59.16
2022-09-28T17:49:17.075Z,59.31
2022-09-28T17:51:50.244Z,56.82
2022-09-28T17:54:20.781Z,57.22
2022-09-28T17:56:48.772Z,57.96
2022-09-28T17:59:19.070Z,58.59
2022-09-28T18:01:48.691Z,59.18
2022-09-28T18:04:39.804Z,59.54
2022-09-28T18:07:08.228Z,60.51
2022-09-28T18:09:37.305Z,61.82
2022-09-28T18:12:06.409Z,64.71
2022-09-28T18:14:36.012Z,65.86
2022-09-28T18:17:07.759Z,67.42
2022-09-28T18:19:37.075Z,68.06
2022-09-28T18:22:06.215Z,68.70
2022-09-28T18:24:34.045Z,69.71
2022-09-28T18:27:02.299Z,70.17
2022-09-28T18:29:33.286Z,70.62
2022-09-28T18:32:03.596Z,71.20
2022-09-28T18:34:36.230Z,71.54
2022-09-28T18:37:07.306Z,71.32
2022-09-28T18:39:38.716Z,72.23
2022-09-28T18:42:09.544Z,72.81
2022-09-28T18:44:39.312Z,72.21
2022-09-28T18:47:09.170Z,72.61
2022-09-28T18:49:39.780Z,73.83
2022-09-28T18:52:11.393Z,74.24
2022-09-28T18:54:43.265Z,74.86
2022-09-28T18:57:11.777Z,74.89
2022-09-28T18:59:40.011Z,75.24
2022-09-28T19:02:10.697Z,75.17
2022-09-28T19:04:40.652Z,74.92
2022-09-28T19:07:10.577Z,76.46
2022-09-28T19:09:44.093Z,77.13
2022-09-28T19:12:13.042Z,77.83
2022-09-28T19:14:43.290Z,77.65
2022-09-28T19:17:12.370Z,76.68
2022-09-28T19:19:45.887Z,76.61
2022-09-28T19:22:16.522Z,77.05
2022-09-28T19:24:45.051Z,77.27
2022-09-28T19:27:16.507Z,77.64
2022-09-28T19:29:45.506Z,77.56
2022-09-28T19:32:19.457Z,77.75
2022-09-28T19:34:51.680Z,77.85
2022-09-28T19:37:21.710Z,77.48
2022-09-28T19:39:51.121Z,78.34
2022-09-28T19:42:19.029Z,78.45
2022-09-28T19:44:47.354Z,78.44
2022-09-28T19:47:21.442Z,78.70
2022-09-28T19:49:50.342Z,78.85
2022-09-28T19:52:18.162Z,77.96
2022-09-28T19:55:00.181Z,77.45
2022-09-28T19:57:31.630Z,77.58
2022-09-28T20:00:03.205Z,76.86
2022-09-28T20:02:34.706Z,77.15
2022-09-28T20:05:03.006Z,76.41
2022-09-28T20:07:32.884Z,76.38
2022-09-28T20:10:02.375Z,77.31
2022-09-28T20:12:30.131Z,77.27
2022-09-28T20:14:57.947Z,76.82
2022-09-28T20:17:25.737Z,78.26
2022-09-28T20:19:53.619Z,79.04
2022-09-28T20:22:21.623Z,78.71
2022-09-28T20:24:49.996Z,79.27
2022-09-28T20:27:22.131Z,79.69
2022-09-28T20:29:56.304Z,78.83
2022-09-28T20:32:24.072Z,78.81
2022-09-28T20:34:51.977Z,78.52
2022-09-28T20:37:19.753Z,78.47
2022-09-28T20:39:48.054Z,78.09
2022-09-28T20:42:16.627Z,78.37
2022-09-28T20:44:46.069Z,78.74
2022-09-28T20:47:13.923Z,78.69
2022-09-28T20:49:41.861Z,78.60
2022-09-28T20:52:09.994Z,78.54
2022-09-28T20:54:39.253Z,79.05
2022-09-28T20:57:17.298Z,79.69
2022-09-28T20:59:53.593Z,79.42
2022-09-28T21:02:23.134Z,79.70
2022-09-28T21:04:51.170Z,79.11
2022-09-28T21:07:19.124Z,79.25
2022-09-28T21:09:48.857Z,79.15
2022-09-28T21:12:18.018Z,79.43
2022-09-28T21:14:47.499Z,78.87
2022-09-28T21:17:15.285Z,79.45
2022-09-28T21:19:43.737Z,79.85
2022-09-28T21:22:11.983Z,79.49
2022-09-28T21:24:40.020Z,79.64
2022-09-28T21:27:07.802Z,78.78
2022-09-28T21:29:36.617Z,78.74
2022-09-28T21:32:08.225Z,78.30
2022-09-28T21:34:36.427Z,78.27
2022-09-28T21:37:04.198Z,77.92
2022-09-28T21:39:31.983Z,77.87
2022-09-28T21:41:59.725Z,78.52
2022-09-28T21:44:27.493Z,78.79
2022-09-28T21:46:55.373Z,78.52
2022-09-28T21:49:24.761Z,78.34
2022-09-28T21:51:52.514Z,78.31
2022-09-28T21:54:21.317Z,77.67
2022-09-28T21:56:49.367Z,78.44
2022-09-28T21:59:17.384Z,78.63
2022-09-28T22:01:45.364Z,78.24
2022-09-28T22:04:15.798Z,77.72
2022-09-28T22:06:45.306Z,77.50
2022-09-28T22:09:13.420Z,77.64
2022-09-28T22:11:41.318Z,77.75
2022-09-28T22:14:10.758Z,78.57
2022-09-28T22:16:39.373Z,78.74
2022-09-28T22:19:07.219Z,79.23
2022-09-28T22:21:35.431Z,79.55
2022-09-28T22:24:07.249Z,79.32
2022-09-28T22:26:37.111Z,78.56
2022-09-28T22:29:07.308Z,77.83
2022-09-28T22:31:38.025Z,77.89
2022-09-28T22:34:09.726Z,78.35
2022-09-28T22:36:37.531Z,78.02
2022-09-28T22:39:06.769Z,78.82
2022-09-28T22:41:35.465Z,78.68
2022-09-28T22:44:03.382Z,78.81
2022-09-28T22:46:32.420Z,78.28
2022-09-28T22:49:00.783Z,77.62
2022-09-28T22:51:30.841Z,78.48
2022-09-28T22:53:58.767Z,77.58
2022-09-28T22:56:28.968Z,77.04
2022-09-28T22:58:57.463Z,77.32
2022-09-28T23:01:28.419Z,77.47
2022-09-28T23:03:58.833Z,77.28
2022-09-28T23:06:30.760Z,77.48
2022-09-28T23:08:59.409Z,77.58
2022-09-28T23:11:29.532Z,78.64
2022-09-28T23:13:59.253Z,79.21
2022-09-28T23:16:27.927Z,78.22
2022-09-28T23:18:56.414Z,78.68
2022-09-28T23:21:27.654Z,79.34
2022-09-28T23:23:58.310Z,79.26
2022-09-28T23:26:31.033Z,79.15
2022-09-28T23:29:00.371Z,79.83
2022-09-28T23:31:31.431Z,79.63
2022-09-28T23:34:02.419Z,79.25
2022-09-28T23:36:31.129Z,78.98
2022-09-28T23:38:59.473Z,79.23
2022-09-28T23:41:30.771Z,79.49
2022-09-28T23:44:00.654Z,79.89
2022-09-28T23:46:28.850Z,80.40
2022-09-28T23:48:56.671Z,80.25
2022-09-28T23:51:24.823Z,80.15
2022-09-28T23:53:52.962Z,79.98
2022-09-28T23:56:22.273Z,79.96
2022-09-28T23:58:51.411Z,78.90
